createdAt,value
2019-04-26T00:04:57.812Z,6.35
2019-04-26T00:10:01.241Z,6.22
2019-04-26T00:15:16.414Z,6.92
2019-04-26T00:20:19.129Z,5.33
2019-04-26T00:25:20.502Z,6.00
2019-04-26T00:30:21.859Z,7.17
2019-04-26T00:35:23.266Z,6.83
2019-04-26T00:40:24.874Z,7.90
2019-04-26T00:45:31.613Z,7.47
2019-04-26T00:50:34.424Z,7.97
2019-04-26T00:55:36.729Z,7.78
2019-04-26T01:00:38.375Z,6.90
2019-04-26T01:06:00.437Z,8.43
2019-04-26T01:11:01.836Z,7.85
2019-04-26T01:16:03.173Z,8.08
2019-04-26T01:21:07.538Z,8.00
2019-04-26T01:26:14.651Z,8.18
2019-04-26T01:31:16.285Z,8.45
2019-04-26T01:36:18.053Z,7.85
2019-04-26T01:41:30.842Z,7.95
2019-04-26T01:46:42.331Z,8.23
2019-04-26T01:52:04.496Z,9.85
2019-04-26T01:57:06.219Z,7.85
2019-04-26T02:02:25.577Z,7.80
2019-04-26T02:07:37.847Z,10.25
2019-04-26T02:12:43.488Z,9.13
2019-04-26T02:17:48.338Z,9.60
2019-04-26T02:23:03.719Z,9.30
2019-04-26T02:28:05.035Z,9.98
2019-04-26T02:33:06.413Z,8.73
2019-04-26T02:38:07.726Z,10.40
2019-04-26T02:43:10.068Z,10.48
2019-04-26T02:48:29.078Z,11.70
2019-04-26T02:53:38.699Z,8.83
2019-04-26T02:58:57.778Z,9.68
2019-04-26T03:03:59.264Z,10.08
2019-04-26T03:09:06.468Z,11.40
2019-04-26T03:14:14.247Z,12.45
2019-04-26T03:19:31.458Z,11.63
2019-04-26T03:24:41.207Z,11.35
2019-04-26T03:30:21.577Z,11.33
2019-04-26T03:35:56.471Z,11.43
2019-04-26T03:41:17.899Z,11.53
2019-04-26T03:46:24.905Z,10.70
2019-04-26T03:51:52.563Z,10.88
2019-04-26T03:57:04.264Z,12.10
2019-04-26T04:02:15.577Z,10.93
2019-04-26T04:07:36.184Z,13.70
2019-04-26T04:12:38.456Z,14.00
2019-04-26T04:17:50.396Z,14.47
2019-04-26T04:23:06.489Z,12.43
2019-04-26T04:28:40.466Z,14.70
2019-04-26T04:33:57.424Z,16.23
2019-04-26T04:39:12.896Z,11.93
2019-04-26T04:44:35.815Z,14.90
2019-04-26T04:50:02.955Z,13.95
2019-04-26T04:55:57.643Z,15.28
2019-04-26T05:01:26.540Z,12.95
2019-04-26T05:07:08.651Z,14.00
2019-04-26T05:12:24.350Z,15.32
2019-04-26T05:17:53.672Z,15.35
2019-04-26T05:23:34.689Z,15.23
2019-04-26T05:29:36.891Z,17.12
2019-04-26T05:34:49.349Z,12.90
2019-04-26T05:40:15.628Z,12.98
2019-04-26T05:46:06.979Z,12.93
2019-04-26T05:52:11.078Z,14.20
2019-04-26T05:57:34.916Z,13.48
2019-04-26T06:03:11.099Z,14.55
2019-04-26T06:08:44.672Z,14.55
2019-04-26T06:14:16.595Z,18.40
2019-04-26T06:19:43.276Z,16.27
2019-04-26T06:24:58.330Z,18.20
2019-04-26T06:30:21.788Z,16.40
2019-04-26T06:35:29.213Z,15.83
2019-04-26T06:40:50.715Z,13.98
2019-04-26T06:46:08.561Z,15.88
2019-04-26T06:51:30.578Z,13.88
2019-04-26T06:56:57.443Z,14.95
2019-04-26T07:02:42.134Z,14.95
2019-04-26T07:08:24.702Z,17.00
2019-04-26T07:14:15.203Z,15.55
2019-04-26T07:19:29.900Z,12.03
2019-04-26T07:25:14.237Z,14.50
2019-04-26T07:30:41.036Z,18.40
2019-04-26T07:36:16.277Z,15.90
2019-04-26T07:42:07.379Z,16.10
2019-04-26T07:47:32.449Z,13.20
2019-04-26T07:53:20.470Z,16.30
2019-04-26T07:59:07.299Z,14.50
2019-04-26T08:04:16.411Z,14.23
2019-04-26T08:09:26.941Z,12.73
2019-04-26T08:14:34.001Z,14.15
2019-04-26T08:19:41.083Z,15.50
2019-04-26T08:24:47.721Z,13.40
2019-04-26T08:29:58.801Z,11.95
2019-04-26T08:35:15.127Z,13.50
2019-04-26T08:40:16.305Z,13.45
2019-04-26T08:45:27.224Z,14.35
2019-04-26T08:50:33.305Z,13.78
2019-04-26T08:55:37.970Z,16.17
2019-04-26T09:01:02.940Z,11.95
2019-04-26T09:06:27.525Z,16.27
2019-04-26T09:11:36.585Z,14.50
2019-04-26T09:16:49.791Z,12.78
2019-04-26T09:21:47.476Z,13.30
2019-04-26T09:26:56.853Z,10.48
2019-04-26T09:32:12.115Z,15.70
2019-04-26T09:37:13.981Z,13.65
2019-04-26T09:42:21.117Z,12.90
2019-04-26T09:47:33.987Z,12.40
2019-04-26T09:52:38.232Z,12.75
2019-04-26T09:57:40.023Z,15.08
2019-04-26T10:02:41.626Z,14.60
2019-04-26T10:07:42.979Z,16.32
2019-04-26T10:13:06.134Z,11.90
2019-04-26T10:18:08.235Z,10.90
2019-04-26T10:23:09.984Z,9.78
2019-04-26T10:28:11.743Z,8.05
2019-04-26T10:33:16.299Z,9.43
2019-04-26T10:38:19.419Z,10.43
2019-04-26T10:43:23.174Z,10.68
2019-04-26T10:48:26.394Z,8.63
2019-04-26T10:53:44.520Z,7.67
2019-04-26T10:58:49.604Z,8.90
2019-04-26T11:03:51.034Z,9.70
2019-04-26T11:08:52.685Z,12.55
2019-04-26T11:13:57.805Z,9.58
2019-04-26T11:19:01.094Z,4.97
2019-04-26T11:24:02.829Z,8.88
2019-04-26T11:29:06.060Z,7.42
2019-04-26T11:34:07.367Z,6.00
2019-04-26T11:39:10.964Z,8.28
2019-04-26T11:44:13.015Z,9.60
2019-04-26T11:49:14.461Z,9.50
2019-04-26T11:54:17.067Z,8.50
2019-04-26T11:59:19.113Z,9.90
2019-04-26T12:04:28.280Z,7.08
2019-04-26T12:09:31.539Z,9.03
2019-04-26T12:14:33.580Z,7.55
2019-04-26T12:19:35.859Z,6.00
2019-04-26T12:24:37.228Z,8.68
2019-04-26T12:29:38.549Z,8.68
2019-04-26T12:34:41.644Z,9.00
2019-04-26T12:39:42.994Z,6.70
2019-04-26T12:44:46.498Z,7.28
2019-04-26T12:49:47.892Z,6.65
2019-04-26T12:54:49.222Z,4.28
2019-04-26T12:59:50.483Z,7.00
2019-04-26T13:04:52.309Z,8.08
2019-04-26T13:10:13.898Z,5.92
2019-04-26T13:16:00.582Z,6.53
2019-04-26T13:21:02.983Z,4.85
2019-04-26T13:26:05.361Z,7.17
2019-04-26T13:31:06.664Z,6.30
2019-04-26T13:36:08.632Z,6.55
2019-04-26T13:41:11.374Z,6.30
2019-04-26T13:46:23.213Z,7.45
2019-04-26T13:51:26.490Z,8.50
2019-04-26T13:56:27.871Z,6.87
2019-04-26T14:01:29.245Z,7.25
2019-04-26T14:06:32.267Z,7.95
2019-04-26T14:11:35.167Z,6.25
2019-04-26T14:16:36.559Z,6.72
2019-04-26T14:21:41.890Z,6.70
2019-04-26T14:26:45.108Z,6.75
2019-04-26T14:31:47.319Z,7.33
2019-04-26T14:36:51.066Z,6.87
2019-04-26T14:41:57.025Z,8.15
2019-04-26T14:46:56.811Z,7.53
2019-04-26T14:51:58.374Z,5.35
2019-04-26T14:57:07.309Z,5.22
2019-04-26T15:02:10.344Z,5.90
2019-04-26T15:07:12.224Z,5.35
2019-04-26T15:12:15.779Z,6.87
2019-04-26T15:17:19.783Z,8.70
2019-04-26T15:22:20.795Z,8.65
2019-04-26T15:27:23.544Z,5.78
2019-04-26T15:32:27.990Z,7.75
2019-04-26T15:37:28.751Z,7.30
2019-04-26T15:42:32.222Z,7.37
2019-04-26T15:47:50.224Z,9.35
2019-04-26T15:52:52.517Z,8.00
2019-04-26T15:57:54.046Z,5.20
2019-04-26T16:02:58.584Z,7.25
2019-04-26T16:08:03.195Z,7.87
2019-04-26T16:13:16.139Z,6.22
2019-04-26T16:18:05.238Z,6.62
2019-04-26T16:23:07.920Z,6.22
2019-04-26T16:28:17.835Z,5.60
2019-04-26T16:33:21.064Z,5.08
2019-04-26T16:38:33.837Z,4.33
2019-04-26T16:43:40.323Z,3.67
2019-04-26T16:48:38.810Z,3.37
2019-04-26T16:58:45.553Z,4.17
2019-04-26T17:03:48.290Z,4.35
2019-04-26T17:08:57.664Z,4.62
2019-04-26T17:09:38.414Z,5.20
2019-04-26T17:13:56.727Z,8.53
2019-04-26T17:18:59.597Z,6.53
2019-04-26T17:24:13.559Z,4.58
2019-04-26T17:29:15.246Z,6.42
2019-04-26T17:34:17.247Z,5.10
2019-04-26T17:39:18.742Z,5.37
2019-04-26T17:44:26.297Z,4.40
2019-04-26T17:49:27.159Z,6.00
2019-04-26T17:54:43.766Z,3.15
2019-04-26T17:59:33.472Z,5.50
2019-04-26T18:04:37.067Z,5.70
2019-04-26T18:09:43.215Z,3.92
2019-04-26T18:14:41.432Z,3.70
2019-04-26T18:25:11.357Z,5.45
2019-04-26T18:30:13.985Z,3.83
2019-04-26T18:35:16.948Z,4.05
2019-04-26T18:40:20.760Z,5.42
2019-04-26T18:45:28.892Z,4.92
2019-04-26T18:50:32.515Z,5.25
2019-04-26T18:55:49.974Z,4.22
2019-04-26T19:00:53.008Z,5.17
2019-04-26T19:05:58.458Z,7.22
2019-04-26T19:11:03.100Z,3.40
2019-04-26T19:16:21.568Z,5.70
2019-04-26T19:21:24.990Z,5.67
2019-04-26T19:26:33.046Z,5.72
2019-04-26T19:31:30.348Z,3.77
2019-04-26T19:36:32.925Z,6.78
2019-04-26T19:41:34.605Z,7.75
2019-04-26T19:46:43.752Z,6.40
2019-04-26T19:52:03.808Z,4.28
2019-04-26T19:57:07.327Z,7.97
2019-04-26T20:02:08.982Z,5.12
2019-04-26T20:07:10.449Z,3.45
2019-04-26T20:12:13.058Z,5.62
2019-04-26T20:17:20.059Z,5.10
2019-04-26T20:22:22.051Z,2.80
2019-04-26T20:27:24.589Z,8.00
2019-04-26T20:32:32.718Z,5.92
2019-04-26T20:37:34.106Z,8.83
2019-04-26T20:42:35.403Z,9.28
2019-04-26T20:47:37.619Z,17.02
2019-04-26T20:52:38.907Z,6.05
2019-04-26T20:57:42.765Z,9.70
2019-04-26T21:02:44.149Z,5.62
2019-04-26T21:07:49.387Z,6.47
2019-04-26T21:12:52.253Z,10.63
2019-04-26T21:17:51.999Z,6.90
2019-04-26T21:28:22.282Z,6.70
2019-04-26T21:33:28.690Z,7.62
2019-04-26T21:38:38.638Z,7.65
2019-04-26T21:43:39.896Z,5.67
2019-04-26T21:48:41.938Z,8.35
2019-04-26T21:53:45.323Z,6.28
2019-04-26T21:58:47.037Z,8.40
2019-04-26T22:03:54.174Z,8.00
2019-04-26T22:08:59.329Z,8.23
2019-04-26T22:14:03.051Z,10.15
2019-04-26T22:19:06.721Z,8.95
2019-04-26T22:24:15.614Z,8.20
2019-04-26T22:29:17.185Z,8.90
2019-04-26T22:34:18.706Z,6.90
2019-04-26T22:39:20.382Z,9.20
2019-04-26T22:44:31.205Z,7.67
2019-04-26T22:49:36.830Z,7.78
2019-04-26T22:54:37.693Z,8.55
2019-04-26T22:59:43.322Z,8.35
2019-04-26T23:04:43.456Z,10.30
2019-04-26T23:09:51.908Z,8.95
2019-04-26T23:14:56.666Z,7.53
2019-04-26T23:19:59.962Z,8.18
2019-04-26T23:25:20.180Z,9.98
2019-04-26T23:30:23.086Z,7.40
2019-04-26T23:35:24.658Z,7.30
2019-04-26T23:40:28.923Z,8.50
2019-04-26T23:45:29.127Z,8.43
2019-04-26T23:50:31.328Z,8.75
2019-04-26T23:55:33.852Z,7.55
